KNE661 OEJN-DAAG
Flight info
| Callsign | KNE661 |
|---|---|
| Flight time | N/A |
| Altitude | 36000 |
| Route | BOMOX M686 OTEMO T55 KUNKI P751 METRU UP868 ARLOS DCT OMENI UL874 DIMAO UZ888 BABOR UA31 ALR |
| Aircraft | A333/H-SDE3GHIJ2J3J5M1RVWXY/LB2D1 |
Departure
| Time | 2026-05-07 15:33 |
|---|---|
| Airport | King Abdulaziz International Airport (OEJN) |
Arrival
| Time | N/A |
|---|---|
| Airport | Houari Boumediene Airport (DAAG) |
| Time | Latitude | Longitude | Altitude | Speed | Heading |
|---|---|---|---|---|---|
| 2026-05-07 15:06 | 21.67537 | 39.17078 | 35 ft | 0 kts | 251° |
| 2026-05-07 15:21 | 21.67541 | 39.17090 | 35 ft | 3 kts | 251° |
| 2026-05-07 15:22 | 21.67549 | 39.17115 | 33 ft | 3 kts | 251° |
| 2026-05-07 15:22 | 21.67555 | 39.17134 | 33 ft | 3 kts | 251° |
| 2026-05-07 15:22 | 21.67559 | 39.17147 | 33 ft | 3 kts | 251° |
| 2026-05-07 15:22 | 21.67561 | 39.17173 | 31 ft | 3 kts | 302° |
| 2026-05-07 15:23 | 21.67553 | 39.17183 | 33 ft | 3 kts | 330° |
| 2026-05-07 15:23 | 21.67551 | 39.17185 | 35 ft | 0 kts | 339° |
| 2026-05-07 15:26 | 21.67560 | 39.17182 | 35 ft | 2 kts | 339° |
| 2026-05-07 15:26 | 21.67595 | 39.17166 | 35 ft | 8 kts | 336° |
| 2026-05-07 15:26 | 21.67656 | 39.17139 | 35 ft | 11 kts | 339° |
| 2026-05-07 15:26 | 21.67737 | 39.17108 | 35 ft | 14 kts | 339° |
| 2026-05-07 15:27 | 21.67784 | 39.17060 | 34 ft | 15 kts | 294° |
| 2026-05-07 15:27 | 21.67753 | 39.16908 | 34 ft | 18 kts | 251° |
| 2026-05-07 15:27 | 21.67724 | 39.16820 | 34 ft | 20 kts | 250° |
| 2026-05-07 15:27 | 21.67654 | 39.16620 | 35 ft | 23 kts | 250° |
| 2026-05-07 15:28 | 21.67618 | 39.16511 | 35 ft | 24 kts | 251° |
| 2026-05-07 15:28 | 21.67535 | 39.16270 | 34 ft | 27 kts | 249° |
| 2026-05-07 15:28 | 21.67473 | 39.16171 | 34 ft | 23 kts | 204° |
| 2026-05-07 15:28 | 21.67329 | 39.16207 | 35 ft | 21 kts | 159° |
| 2026-05-07 15:29 | 21.67194 | 39.16263 | 36 ft | 20 kts | 159° |
| 2026-05-07 15:29 | 21.67062 | 39.16317 | 37 ft | 20 kts | 159° |
| 2026-05-07 15:29 | 21.66888 | 39.16387 | 37 ft | 20 kts | 160° |
| 2026-05-07 15:29 | 21.66760 | 39.16436 | 38 ft | 20 kts | 160° |
| 2026-05-07 15:30 | 21.66675 | 39.16469 | 38 ft | 20 kts | 160° |
| 2026-05-07 15:30 | 21.66549 | 39.16519 | 39 ft | 19 kts | 160° |
| 2026-05-07 15:30 | 21.66425 | 39.16569 | 39 ft | 19 kts | 159° |
| 2026-05-07 15:30 | 21.66299 | 39.16619 | 39 ft | 19 kts | 159° |
| 2026-05-07 15:31 | 21.66194 | 39.16621 | 39 ft | 14 kts | 218° |
| 2026-05-07 15:31 | 21.66159 | 39.16527 | 38 ft | 14 kts | 272° |
| 2026-05-07 15:31 | 21.66212 | 39.16453 | 37 ft | 12 kts | 333° |
| 2026-05-07 15:31 | 21.66234 | 39.16442 | 37 ft | 4 kts | 338° |
| 2026-05-07 15:32 | 21.66428 | 39.16364 | 38 ft | 58 kts | 340° |
| 2026-05-07 15:32 | 21.66990 | 39.16144 | 37 ft | 113 kts | 340° |
| 2026-05-07 15:32 | 21.67891 | 39.15793 | 33 ft | 161 kts | 340° |
| 2026-05-07 15:32 | 21.68999 | 39.15367 | 519 ft | 172 kts | 340° |
| 2026-05-07 15:33 | 21.70128 | 39.14930 | 1176 ft | 172 kts | 340° |
| 2026-05-07 15:33 | 21.71219 | 39.14492 | 1994 ft | 166 kts | 340° |
| 2026-05-07 15:33 | 21.72347 | 39.14038 | 2279 ft | 183 kts | 340° |
| 2026-05-07 15:33 | 21.73612 | 39.13536 | 2424 ft | 204 kts | 340° |
| 2026-05-07 15:34 | 21.75020 | 39.12979 | 2590 ft | 227 kts | 340° |
| 2026-05-07 15:34 | 21.76578 | 39.12364 | 2723 ft | 250 kts | 339° |
| 2026-05-07 15:34 | 21.78269 | 39.11696 | 2976 ft | 266 kts | 340° |
| 2026-05-07 15:34 | 21.80034 | 39.10999 | 3374 ft | 275 kts | 339° |
| 2026-05-07 15:35 | 21.81844 | 39.10284 | 3867 ft | 279 kts | 339° |
| 2026-05-07 15:35 | 21.83675 | 39.09559 | 4399 ft | 282 kts | 339° |
| 2026-05-07 15:35 | 21.86159 | 39.08577 | 5043 ft | 288 kts | 339° |
| 2026-05-07 15:35 | 21.88044 | 39.07831 | 5629 ft | 286 kts | 339° |
| 2026-05-07 15:36 | 21.89869 | 39.07071 | 5931 ft | 284 kts | 337° |
| 2026-05-07 15:36 | 21.91681 | 39.06231 | 6166 ft | 282 kts | 336° |
| 2026-05-07 15:36 | 21.93479 | 39.05374 | 6641 ft | 284 kts | 335° |
| 2026-05-07 15:36 | 21.95290 | 39.04511 | 7231 ft | 285 kts | 334° |
| 2026-05-07 15:37 | 21.97108 | 39.03642 | 7841 ft | 286 kts | 334° |
| 2026-05-07 15:37 | 21.98930 | 39.02770 | 8475 ft | 287 kts | 333° |
| 2026-05-07 15:37 | 22.00761 | 39.01895 | 9095 ft | 290 kts | 334° |
| 2026-05-07 15:37 | 22.02614 | 39.01008 | 9719 ft | 293 kts | 333° |
| 2026-05-07 15:38 | 22.04487 | 39.00112 | 10229 ft | 299 kts | 333° |
| 2026-05-07 15:38 | 22.06438 | 38.99174 | 10451 ft | 315 kts | 332° |
| 2026-05-07 15:38 | 22.08492 | 38.98187 | 10648 ft | 332 kts | 333° |
| 2026-05-07 15:38 | 22.10652 | 38.97151 | 10850 ft | 348 kts | 332° |
| 2026-05-07 15:39 | 22.12910 | 38.96070 | 11039 ft | 363 kts | 333° |
| 2026-05-07 15:39 | 22.15263 | 38.94942 | 11220 ft | 377 kts | 333° |
| 2026-05-07 15:39 | 22.17690 | 38.93782 | 11518 ft | 385 kts | 333° |
| 2026-05-07 15:39 | 22.20160 | 38.92605 | 11977 ft | 389 kts | 333° |
| 2026-05-07 15:40 | 22.22645 | 38.91417 | 12459 ft | 393 kts | 332° |
| 2026-05-07 15:40 | 22.25029 | 38.89987 | 12947 ft | 391 kts | 319° |
| 2026-05-07 15:40 | 22.26924 | 38.87930 | 13480 ft | 385 kts | 302° |
| 2026-05-07 15:40 | 22.28355 | 38.85499 | 14012 ft | 384 kts | 296° |
| 2026-05-07 15:41 | 22.29686 | 38.82987 | 14436 ft | 387 kts | 296° |
| 2026-05-07 15:41 | 22.31016 | 38.80445 | 14883 ft | 390 kts | 296° |
| 2026-05-07 15:41 | 22.32358 | 38.77890 | 15326 ft | 393 kts | 296° |
| 2026-05-07 15:41 | 22.33718 | 38.75314 | 15759 ft | 396 kts | 296° |
| 2026-05-07 15:42 | 22.35088 | 38.72725 | 16194 ft | 398 kts | 296° |
| 2026-05-07 15:42 | 22.36467 | 38.70122 | 16663 ft | 401 kts | 296° |
| 2026-05-07 15:42 | 22.37859 | 38.67495 | 17073 ft | 404 kts | 296° |
| 2026-05-07 15:42 | 22.39260 | 38.64851 | 17486 ft | 407 kts | 296° |
| 2026-05-07 15:43 | 22.40672 | 38.62185 | 17861 ft | 411 kts | 296° |
| 2026-05-07 15:43 | 22.42098 | 38.59493 | 18246 ft | 413 kts | 296° |
| 2026-05-07 15:43 | 22.43527 | 38.56793 | 18603 ft | 415 kts | 296° |
| 2026-05-07 15:43 | 22.44965 | 38.54077 | 18998 ft | 416 kts | 296° |
| 2026-05-07 15:44 | 22.46401 | 38.51364 | 19388 ft | 417 kts | 296° |
| 2026-05-07 15:44 | 22.47355 | 38.49558 | 19624 ft | 418 kts | 296° |
| 2026-05-07 15:44 | 22.48903 | 38.46822 | 20003 ft | 422 kts | 301° |
| 2026-05-07 15:44 | 22.50752 | 38.44394 | 20377 ft | 428 kts | 311° |
| 2026-05-07 15:45 | 22.52933 | 38.42202 | 20736 ft | 432 kts | 315° |
| 2026-05-07 15:45 | 22.55254 | 38.40106 | 21105 ft | 434 kts | 317° |
| 2026-05-07 15:45 | 22.57613 | 38.38088 | 21472 ft | 436 kts | 318° |
| 2026-05-07 15:45 | 22.60018 | 38.36067 | 21832 ft | 438 kts | 318° |
| 2026-05-07 15:46 | 22.64841 | 38.31999 | 22559 ft | 441 kts | 317° |
| 2026-05-07 15:46 | 22.67250 | 38.29940 | 22920 ft | 442 kts | 317° |
| 2026-05-07 15:46 | 22.69659 | 38.27866 | 23285 ft | 444 kts | 317° |
| 2026-05-07 15:47 | 22.72078 | 38.25773 | 23614 ft | 445 kts | 317° |
| 2026-05-07 15:47 | 22.74498 | 38.23674 | 23928 ft | 447 kts | 317° |
| 2026-05-07 15:47 | 22.76928 | 38.21564 | 24207 ft | 449 kts | 316° |
| 2026-05-07 15:47 | 22.79370 | 38.19442 | 24490 ft | 451 kts | 316° |
| 2026-05-07 15:48 | 22.81819 | 38.17314 | 24800 ft | 452 kts | 316° |
| 2026-05-07 15:48 | 22.84280 | 38.15175 | 25086 ft | 454 kts | 316° |
| 2026-05-07 15:48 | 22.86748 | 38.13030 | 25359 ft | 456 kts | 316° |
| 2026-05-07 15:48 | 22.89231 | 38.10870 | 25632 ft | 458 kts | 316° |
| 2026-05-07 15:49 | 22.91726 | 38.08700 | 25913 ft | 460 kts | 316° |
| 2026-05-07 15:49 | 22.94227 | 38.06524 | 26185 ft | 462 kts | 316° |
| 2026-05-07 15:49 | 22.96742 | 38.04334 | 26457 ft | 464 kts | 316° |
| 2026-05-07 15:49 | 22.99264 | 38.02137 | 26726 ft | 467 kts | 316° |
| 2026-05-07 15:50 | 23.01801 | 37.99926 | 26997 ft | 469 kts | 316° |
| 2026-05-07 15:50 | 23.04352 | 37.97701 | 27258 ft | 471 kts | 316° |
| 2026-05-07 15:50 | 23.06908 | 37.95472 | 27543 ft | 473 kts | 315° |
| 2026-05-07 15:50 | 23.09479 | 37.93227 | 27805 ft | 475 kts | 315° |
| 2026-05-07 15:51 | 23.12054 | 37.90978 | 28067 ft | 477 kts | 315° |
| 2026-05-07 15:51 | 23.14652 | 37.88709 | 28317 ft | 479 kts | 315° |
| 2026-05-07 15:51 | 23.17256 | 37.86432 | 28563 ft | 481 kts | 315° |
| 2026-05-07 15:51 | 23.19866 | 37.84151 | 28882 ft | 481 kts | 315° |
| 2026-05-07 15:52 | 23.22471 | 37.81873 | 29262 ft | 480 kts | 315° |
| 2026-05-07 15:52 | 23.25070 | 37.79600 | 29617 ft | 479 kts | 315° |
| 2026-05-07 15:52 | 23.27670 | 37.77323 | 29849 ft | 480 kts | 315° |
| 2026-05-07 15:53 | 23.32868 | 37.72766 | 29853 ft | 480 kts | 315° |
| 2026-05-07 15:53 | 23.38056 | 37.68212 | 29854 ft | 479 kts | 315° |
| 2026-05-07 15:54 | 23.43240 | 37.63651 | 29855 ft | 480 kts | 314° |
| 2026-05-07 15:54 | 23.48438 | 37.59073 | 29853 ft | 481 kts | 314° |
| 2026-05-07 15:54 | 23.51044 | 37.56778 | 29954 ft | 482 kts | 314° |
| 2026-05-07 15:55 | 23.53646 | 37.54486 | 30279 ft | 480 kts | 314° |
| 2026-05-07 15:55 | 23.56237 | 37.52204 | 30656 ft | 478 kts | 314° |
| 2026-05-07 15:55 | 23.58816 | 37.49932 | 31010 ft | 476 kts | 314° |
| 2026-05-07 15:55 | 23.61379 | 37.47671 | 31336 ft | 474 kts | 314° |
| 2026-05-07 15:56 | 23.63937 | 37.45413 | 31745 ft | 471 kts | 313° |
| 2026-05-07 15:56 | 23.66480 | 37.43168 | 32107 ft | 469 kts | 313° |
| 2026-05-07 15:56 | 23.69011 | 37.40929 | 32403 ft | 468 kts | 313° |
| 2026-05-07 15:56 | 23.71545 | 37.38687 | 32712 ft | 468 kts | 313° |
| 2026-05-07 15:57 | 23.74070 | 37.36451 | 33038 ft | 467 kts | 312° |
| 2026-05-07 15:57 | 23.76583 | 37.34224 | 33300 ft | 467 kts | 312° |
| 2026-05-07 15:57 | 23.79106 | 37.31988 | 33572 ft | 466 kts | 312° |
| 2026-05-07 15:57 | 23.81616 | 37.29764 | 33856 ft | 465 kts | 312° |
| 2026-05-07 15:58 | 23.84125 | 37.27539 | 34090 ft | 464 kts | 312° |
| 2026-05-07 15:58 | 23.86636 | 37.25311 | 34273 ft | 465 kts | 311° |
| 2026-05-07 15:58 | 23.89143 | 37.23084 | 34472 ft | 465 kts | 311° |
| 2026-05-07 15:58 | 23.91649 | 37.20859 | 34758 ft | 462 kts | 311° |
| 2026-05-07 15:59 | 23.94140 | 37.18647 | 34976 ft | 462 kts | 311° |
| 2026-05-07 15:59 | 23.96631 | 37.16432 | 35141 ft | 462 kts | 311° |
| 2026-05-07 15:59 | 23.99128 | 37.14210 | 35308 ft | 462 kts | 311° |
| 2026-05-07 15:59 | 24.01623 | 37.11987 | 35475 ft | 463 kts | 311° |
| 2026-05-07 16:00 | 24.04119 | 37.09764 | 35655 ft | 463 kts | 311° |
| 2026-05-07 16:00 | 24.06611 | 37.07544 | 35809 ft | 463 kts | 311° |
| 2026-05-07 16:00 | 24.09116 | 37.05309 | 35867 ft | 465 kts | 311° |
| 2026-05-07 16:01 | 24.14114 | 37.00852 | 35860 ft | 463 kts | 311° |
| 2026-05-07 16:01 | 24.19101 | 36.96402 | 35860 ft | 461 kts | 311° |
| 2026-05-07 16:02 | 24.24062 | 36.91967 | 35848 ft | 461 kts | 311° |
| 2026-05-07 16:02 | 24.29029 | 36.87521 | 35866 ft | 461 kts | 311° |
| 2026-05-07 16:03 | 24.33986 | 36.83080 | 35864 ft | 461 kts | 311° |
| 2026-05-07 16:03 | 24.38948 | 36.78629 | 35869 ft | 461 kts | 311° |
| 2026-05-07 16:04 | 24.43875 | 36.74206 | 35896 ft | 461 kts | 311° |
| 2026-05-07 16:04 | 24.48879 | 36.69708 | 35869 ft | 462 kts | 311° |
| 2026-05-07 16:05 | 24.53823 | 36.65262 | 35865 ft | 462 kts | 311° |
| 2026-05-07 16:05 | 24.58719 | 36.60716 | 35874 ft | 456 kts | 306° |
| 2026-05-07 16:06 | 24.62483 | 36.55328 | 35876 ft | 436 kts | 290° |
| 2026-05-07 16:06 | 24.64791 | 36.49268 | 35892 ft | 428 kts | 283° |
| 2026-05-07 16:07 | 24.66719 | 36.43076 | 35872 ft | 429 kts | 282° |
| 2026-05-07 16:07 | 24.68597 | 36.36852 | 35873 ft | 429 kts | 282° |
| 2026-05-07 16:08 | 24.70499 | 36.30629 | 35876 ft | 429 kts | 282° |
| 2026-05-07 16:08 | 24.72419 | 36.24407 | 35895 ft | 430 kts | 282° |
| 2026-05-07 16:09 | 24.74347 | 36.18162 | 35875 ft | 432 kts | 282° |
| 2026-05-07 16:09 | 24.76280 | 36.11892 | 35876 ft | 433 kts | 282° |
| 2026-05-07 16:10 | 24.78213 | 36.05615 | 35878 ft | 433 kts | 282° |
| 2026-05-07 16:10 | 24.80141 | 35.99339 | 35879 ft | 433 kts | 282° |
| 2026-05-07 16:11 | 24.82067 | 35.93057 | 35882 ft | 433 kts | 282° |
| 2026-05-07 16:11 | 24.83990 | 35.86772 | 35881 ft | 433 kts | 282° |
| 2026-05-07 16:12 | 24.85910 | 35.80492 | 35884 ft | 433 kts | 282° |
| 2026-05-07 16:12 | 24.87825 | 35.74212 | 35913 ft | 433 kts | 282° |
| 2026-05-07 16:13 | 24.89741 | 35.67918 | 35887 ft | 433 kts | 282° |
| 2026-05-07 16:13 | 24.91654 | 35.61627 | 35888 ft | 433 kts | 282° |
| 2026-05-07 16:14 | 24.93567 | 35.55326 | 35889 ft | 433 kts | 282° |
| 2026-05-07 16:14 | 24.95463 | 35.49067 | 35909 ft | 433 kts | 283° |
| 2026-05-07 16:15 | 24.97381 | 35.42735 | 35892 ft | 432 kts | 283° |
| 2026-05-07 16:15 | 24.99262 | 35.36502 | 35893 ft | 431 kts | 283° |
| 2026-05-07 16:16 | 25.01152 | 35.30230 | 35898 ft | 431 kts | 283° |
| 2026-05-07 16:16 | 25.03041 | 35.23949 | 35908 ft | 432 kts | 283° |
| 2026-05-07 16:17 | 25.04984 | 35.17683 | 35898 ft | 434 kts | 288° |
| 2026-05-07 16:17 | 25.08034 | 35.11859 | 35900 ft | 446 kts | 303° |
| 2026-05-07 16:18 | 25.12293 | 35.06801 | 35903 ft | 452 kts | 308° |
| 2026-05-07 16:18 | 25.16798 | 35.01939 | 35911 ft | 454 kts | 310° |
| 2026-05-07 16:19 | 25.21344 | 34.97077 | 35900 ft | 455 kts | 310° |
| 2026-05-07 16:19 | 25.25862 | 34.92199 | 35906 ft | 454 kts | 310° |
| 2026-05-07 16:20 | 25.30360 | 34.87307 | 35906 ft | 454 kts | 310° |
| 2026-05-07 16:20 | 25.34850 | 34.82407 | 35911 ft | 454 kts | 310° |
| 2026-05-07 16:21 | 25.39338 | 34.77504 | 35914 ft | 454 kts | 310° |
| 2026-05-07 16:21 | 25.43828 | 34.72596 | 35924 ft | 454 kts | 311° |
| 2026-05-07 16:22 | 25.48306 | 34.67693 | 35937 ft | 453 kts | 311° |
| 2026-05-07 16:22 | 25.52784 | 34.62789 | 35939 ft | 453 kts | 311° |
| 2026-05-07 16:23 | 25.57237 | 34.57906 | 35939 ft | 454 kts | 311° |
| 2026-05-07 16:23 | 25.61515 | 34.52781 | 35937 ft | 452 kts | 307° |
| 2026-05-07 16:24 | 25.65561 | 34.47458 | 35942 ft | 452 kts | 306° |
| 2026-05-07 16:24 | 25.69590 | 34.42120 | 35931 ft | 450 kts | 307° |
| 2026-05-07 16:25 | 25.73633 | 34.36817 | 35925 ft | 450 kts | 307° |
| 2026-05-07 16:25 | 25.77688 | 34.31530 | 35925 ft | 450 kts | 307° |
| 2026-05-07 16:26 | 25.81745 | 34.26241 | 35928 ft | 450 kts | 307° |
| 2026-05-07 16:26 | 25.85802 | 34.20946 | 35929 ft | 450 kts | 308° |
| 2026-05-07 16:27 | 25.89842 | 34.15665 | 35944 ft | 448 kts | 308° |
| 2026-05-07 16:27 | 25.93877 | 34.10383 | 35924 ft | 449 kts | 308° |
| 2026-05-07 16:28 | 25.97923 | 34.05082 | 35919 ft | 450 kts | 308° |
| 2026-05-07 16:28 | 26.01968 | 33.99776 | 35919 ft | 450 kts | 308° |
| 2026-05-07 16:29 | 26.06010 | 33.94469 | 35919 ft | 450 kts | 309° |
| 2026-05-07 16:29 | 26.10008 | 33.89214 | 35916 ft | 447 kts | 309° |
| 2026-05-07 16:30 | 26.14012 | 33.83944 | 35918 ft | 446 kts | 309° |
| 2026-05-07 16:30 | 26.18014 | 33.78671 | 35915 ft | 446 kts | 309° |
| 2026-05-07 16:31 | 26.22014 | 33.73394 | 35915 ft | 446 kts | 309° |
| 2026-05-07 16:31 | 26.25361 | 33.68973 | 35903 ft | 446 kts | 309° |
| 2026-05-07 16:32 | 26.29338 | 33.63713 | 35912 ft | 441 kts | 310° |
| 2026-05-07 16:32 | 26.33249 | 33.58538 | 35912 ft | 438 kts | 310° |
| 2026-05-07 16:33 | 26.37178 | 33.53333 | 35913 ft | 439 kts | 310° |
| 2026-05-07 16:33 | 26.41104 | 33.48124 | 35915 ft | 439 kts | 310° |
| 2026-05-07 16:34 | 26.45033 | 33.42906 | 35910 ft | 439 kts | 310° |
| 2026-05-07 16:34 | 26.48957 | 33.37688 | 35912 ft | 439 kts | 310° |
| 2026-05-07 16:35 | 26.52873 | 33.32475 | 35908 ft | 439 kts | 310° |
| 2026-05-07 16:35 | 26.56793 | 33.27253 | 35910 ft | 439 kts | 310° |
| 2026-05-07 16:36 | 26.60708 | 33.22029 | 35904 ft | 439 kts | 310° |
| 2026-05-07 16:36 | 26.64624 | 33.16798 | 35904 ft | 438 kts | 310° |
| 2026-05-07 16:37 | 26.68527 | 33.11579 | 35904 ft | 436 kts | 310° |
| 2026-05-07 16:37 | 26.72403 | 33.06390 | 35901 ft | 434 kts | 310° |
| 2026-05-07 16:38 | 26.76269 | 33.01208 | 35895 ft | 434 kts | 310° |
| 2026-05-07 16:38 | 26.80141 | 32.96012 | 35894 ft | 434 kts | 310° |
| 2026-05-07 16:39 | 26.84004 | 32.90821 | 35893 ft | 434 kts | 310° |
| 2026-05-07 16:39 | 26.87858 | 32.85637 | 35893 ft | 432 kts | 310° |
| 2026-05-07 16:40 | 26.91687 | 32.80480 | 35897 ft | 428 kts | 310° |
| 2026-05-07 16:40 | 26.95492 | 32.75351 | 35897 ft | 428 kts | 310° |
| 2026-05-07 16:41 | 26.99276 | 32.70243 | 35899 ft | 428 kts | 310° |
| 2026-05-07 16:41 | 27.03104 | 32.65070 | 35906 ft | 428 kts | 310° |
| 2026-05-07 16:42 | 27.06906 | 32.59926 | 35907 ft | 427 kts | 311° |
| 2026-05-07 16:42 | 27.10653 | 32.54850 | 35916 ft | 424 kts | 311° |
| 2026-05-07 16:43 | 27.14414 | 32.49749 | 35913 ft | 424 kts | 311° |
| 2026-05-07 16:43 | 27.18175 | 32.44644 | 35922 ft | 424 kts | 311° |
| 2026-05-07 16:44 | 27.21935 | 32.39532 | 35925 ft | 424 kts | 311° |
| 2026-05-07 16:44 | 27.25684 | 32.34431 | 35915 ft | 424 kts | 311° |
| 2026-05-07 16:45 | 27.29420 | 32.29338 | 35922 ft | 420 kts | 311° |
| 2026-05-07 16:45 | 27.33043 | 32.24196 | 35934 ft | 419 kts | 310° |
| 2026-05-07 16:46 | 27.36595 | 32.18989 | 35928 ft | 419 kts | 309° |
| 2026-05-07 16:46 | 27.40140 | 32.13778 | 35945 ft | 419 kts | 309° |
| 2026-05-07 16:47 | 27.43694 | 32.08571 | 35944 ft | 419 kts | 310° |
| 2026-05-07 16:47 | 27.47240 | 32.03378 | 35981 ft | 417 kts | 310° |
| 2026-05-07 16:48 | 27.50769 | 31.98208 | 35978 ft | 416 kts | 310° |
| 2026-05-07 16:48 | 27.54300 | 31.93034 | 35991 ft | 416 kts | 310° |
| 2026-05-07 16:49 | 27.57830 | 31.87852 | 35996 ft | 417 kts | 310° |
| 2026-05-07 16:49 | 27.61331 | 31.82705 | 36010 ft | 416 kts | 310° |
| 2026-05-07 16:50 | 27.64872 | 31.77492 | 36014 ft | 416 kts | 311° |
| 2026-05-07 16:50 | 27.68378 | 31.72323 | 36035 ft | 414 kts | 310° |
| 2026-05-07 16:51 | 27.71852 | 31.67198 | 36036 ft | 414 kts | 311° |
| 2026-05-07 16:51 | 27.75355 | 31.62025 | 36045 ft | 414 kts | 310° |
| 2026-05-07 16:52 | 27.78849 | 31.56857 | 36045 ft | 414 kts | 310° |
| 2026-05-07 16:52 | 27.82343 | 31.51684 | 36037 ft | 414 kts | 311° |
| 2026-05-07 16:53 | 27.85828 | 31.46517 | 36049 ft | 412 kts | 311° |
| 2026-05-07 16:53 | 27.89293 | 31.41373 | 36044 ft | 411 kts | 311° |
| 2026-05-07 16:54 | 27.92760 | 31.36222 | 36049 ft | 412 kts | 311° |
| 2026-05-07 16:54 | 27.96228 | 31.31062 | 36046 ft | 412 kts | 311° |
| 2026-05-07 16:55 | 27.99689 | 31.25907 | 36068 ft | 412 kts | 311° |
| 2026-05-07 16:55 | 28.03150 | 31.20745 | 36056 ft | 410 kts | 311° |
| 2026-05-07 16:56 | 28.06587 | 31.15610 | 36061 ft | 408 kts | 310° |
| 2026-05-07 16:56 | 28.11436 | 31.07654 | 36061 ft | 410 kts | 308° |
| 2026-05-07 16:57 | 28.14571 | 31.02261 | 36061 ft | 410 kts | 308° |
| 2026-05-07 16:57 | 28.17722 | 30.96868 | 36061 ft | 410 kts | 308° |
| 2026-05-07 16:58 | 28.20878 | 30.91496 | 36059 ft | 409 kts | 308° |
| 2026-05-07 16:58 | 28.24025 | 30.86145 | 36062 ft | 408 kts | 308° |
| 2026-05-07 16:59 | 28.27169 | 30.80797 | 36062 ft | 408 kts | 308° |
| 2026-05-07 16:59 | 28.30310 | 30.75442 | 36061 ft | 408 kts | 308° |
| 2026-05-07 17:00 | 28.33445 | 30.70088 | 36061 ft | 407 kts | 308° |
| 2026-05-07 17:00 | 28.36549 | 30.64782 | 36061 ft | 406 kts | 308° |
| 2026-05-07 17:01 | 28.39676 | 30.59433 | 36060 ft | 406 kts | 308° |
| 2026-05-07 17:01 | 28.42796 | 30.54087 | 36058 ft | 406 kts | 308° |
| 2026-05-07 17:02 | 28.45920 | 30.48728 | 36059 ft | 406 kts | 308° |
| 2026-05-07 17:02 | 28.49039 | 30.43370 | 36057 ft | 407 kts | 308° |
| 2026-05-07 17:03 | 28.52155 | 30.38010 | 36052 ft | 406 kts | 308° |
| 2026-05-07 17:03 | 28.55261 | 30.32660 | 36059 ft | 405 kts | 308° |
| 2026-05-07 17:04 | 28.58358 | 30.27319 | 36061 ft | 404 kts | 308° |
| 2026-05-07 17:04 | 28.61455 | 30.21974 | 36061 ft | 404 kts | 308° |
| 2026-05-07 17:05 | 28.64546 | 30.16631 | 36061 ft | 404 kts | 308° |
| 2026-05-07 17:05 | 28.67634 | 30.11286 | 36044 ft | 404 kts | 308° |
| 2026-05-07 17:06 | 28.70723 | 30.05932 | 36058 ft | 403 kts | 308° |
| 2026-05-07 17:06 | 28.73795 | 30.00600 | 36061 ft | 403 kts | 308° |
| 2026-05-07 17:07 | 28.76870 | 29.95256 | 36064 ft | 402 kts | 308° |
| 2026-05-07 17:07 | 28.79905 | 29.89976 | 36061 ft | 400 kts | 308° |
| 2026-05-07 17:08 | 28.82957 | 29.84660 | 36062 ft | 401 kts | 308° |
| 2026-05-07 17:08 | 28.86004 | 29.79345 | 36060 ft | 400 kts | 308° |
| 2026-05-07 17:09 | 28.89037 | 29.74048 | 36061 ft | 398 kts | 308° |
| 2026-05-07 17:09 | 28.92067 | 29.68750 | 36061 ft | 398 kts | 308° |
| 2026-05-07 17:10 | 28.95094 | 29.63452 | 36061 ft | 398 kts | 308° |
| 2026-05-07 17:10 | 28.98116 | 29.58154 | 36061 ft | 398 kts | 308° |
| 2026-05-07 17:11 | 29.01140 | 29.52846 | 36055 ft | 398 kts | 308° |
| 2026-05-07 17:11 | 29.04160 | 29.47539 | 36064 ft | 398 kts | 308° |
| 2026-05-07 17:12 | 29.07178 | 29.42229 | 36061 ft | 398 kts | 308° |
| 2026-05-07 17:12 | 29.10197 | 29.36914 | 36062 ft | 398 kts | 309° |
| 2026-05-07 17:13 | 29.13721 | 29.32119 | 36064 ft | 391 kts | 321° |
| 2026-05-07 17:13 | 29.17915 | 29.28189 | 36075 ft | 389 kts | 324° |
| 2026-05-07 17:14 | 29.22217 | 29.24463 | 36054 ft | 387 kts | 325° |
| 2026-05-07 17:14 | 29.26531 | 29.20768 | 36068 ft | 388 kts | 325° |
| 2026-05-07 17:15 | 29.30853 | 29.17041 | 36066 ft | 389 kts | 324° |
| 2026-05-07 17:15 | 29.35165 | 29.13299 | 36066 ft | 389 kts | 324° |
| 2026-05-07 17:16 | 29.39446 | 29.09573 | 36072 ft | 389 kts | 324° |
| 2026-05-07 17:16 | 29.43779 | 29.05796 | 36074 ft | 389 kts | 324° |
| 2026-05-07 17:17 | 29.48054 | 29.02059 | 36077 ft | 389 kts | 324° |
| 2026-05-07 17:17 | 29.52344 | 28.98302 | 36074 ft | 386 kts | 324° |
| 2026-05-07 17:18 | 29.56595 | 28.94576 | 36072 ft | 384 kts | 324° |
| 2026-05-07 17:18 | 29.60858 | 28.90838 | 36080 ft | 387 kts | 324° |
| 2026-05-07 17:19 | 29.65144 | 28.87078 | 36086 ft | 387 kts | 324° |
| 2026-05-07 17:19 | 29.69422 | 28.83318 | 36089 ft | 387 kts | 324° |
| 2026-05-07 17:20 | 29.72978 | 28.80189 | 36089 ft | 387 kts | 324° |
| 2026-05-07 17:20 | 29.77977 | 28.75786 | 36091 ft | 387 kts | 324° |
| 2026-05-07 17:21 | 29.81536 | 28.72649 | 36117 ft | 387 kts | 324° |
| 2026-05-07 17:21 | 29.85786 | 28.68896 | 36097 ft | 383 kts | 324° |
| 2026-05-07 17:22 | 29.90015 | 28.65158 | 36100 ft | 383 kts | 324° |
| 2026-05-07 17:22 | 29.94258 | 28.61407 | 36107 ft | 385 kts | 324° |
| 2026-05-07 17:23 | 29.98508 | 28.57644 | 36107 ft | 386 kts | 324° |
| 2026-05-07 17:23 | 30.02765 | 28.53870 | 36110 ft | 386 kts | 324° |
| 2026-05-07 17:24 | 30.07017 | 28.50097 | 36115 ft | 386 kts | 324° |
| 2026-05-07 17:24 | 30.11266 | 28.46321 | 36116 ft | 386 kts | 324° |
| 2026-05-07 17:25 | 30.15517 | 28.42540 | 36118 ft | 386 kts | 324° |
| 2026-05-07 17:25 | 30.19768 | 28.38754 | 36126 ft | 386 kts | 324° |
| 2026-05-07 17:26 | 30.24016 | 28.34968 | 36122 ft | 386 kts | 323° |
| 2026-05-07 17:26 | 30.28268 | 28.31173 | 36124 ft | 386 kts | 323° |
| 2026-05-07 17:27 | 30.32513 | 28.27381 | 36127 ft | 386 kts | 323° |
| 2026-05-07 17:27 | 30.36760 | 28.23581 | 36127 ft | 386 kts | 323° |
| 2026-05-07 17:28 | 30.41004 | 28.19782 | 36127 ft | 386 kts | 323° |
| 2026-05-07 17:28 | 30.45223 | 28.15999 | 36145 ft | 386 kts | 323° |
| 2026-05-07 17:29 | 30.49449 | 28.12205 | 36135 ft | 384 kts | 323° |
| 2026-05-07 17:29 | 30.53667 | 28.08415 | 36135 ft | 383 kts | 323° |
| 2026-05-07 17:30 | 30.57886 | 28.04620 | 36140 ft | 384 kts | 323° |
| 2026-05-07 17:30 | 30.62107 | 28.00820 | 36144 ft | 384 kts | 323° |
| 2026-05-07 17:31 | 30.66327 | 27.97015 | 36140 ft | 384 kts | 323° |
| 2026-05-07 17:31 | 30.70552 | 27.93201 | 36148 ft | 384 kts | 323° |
| 2026-05-07 17:32 | 30.74773 | 27.89387 | 36146 ft | 384 kts | 323° |
| 2026-05-07 17:32 | 30.78993 | 27.85569 | 36146 ft | 384 kts | 323° |
| 2026-05-07 17:33 | 30.83206 | 27.81753 | 36151 ft | 383 kts | 323° |
| 2026-05-07 17:33 | 30.87411 | 27.77940 | 36151 ft | 383 kts | 323° |
| 2026-05-07 17:34 | 30.91617 | 27.74123 | 36151 ft | 384 kts | 323° |
| 2026-05-07 17:34 | 30.95823 | 27.70300 | 36154 ft | 384 kts | 323° |
| 2026-05-07 17:35 | 31.00034 | 27.66468 | 36154 ft | 384 kts | 323° |
| 2026-05-07 17:35 | 31.04235 | 27.62641 | 36154 ft | 384 kts | 323° |
| 2026-05-07 17:36 | 31.08440 | 27.58808 | 36163 ft | 384 kts | 323° |
| 2026-05-07 17:36 | 31.12531 | 27.54822 | 36155 ft | 384 kts | 317° |
| 2026-05-07 17:37 | 31.15893 | 27.49998 | 36155 ft | 387 kts | 309° |
| 2026-05-07 17:37 | 31.18962 | 27.44823 | 36153 ft | 389 kts | 308° |
| 2026-05-07 17:38 | 31.21979 | 27.39569 | 36151 ft | 390 kts | 308° |
| 2026-05-07 17:38 | 31.25005 | 27.34303 | 36156 ft | 390 kts | 308° |
| 2026-05-07 17:39 | 31.28036 | 27.29054 | 36156 ft | 390 kts | 308° |
| 2026-05-07 17:39 | 31.31233 | 27.23955 | 36156 ft | 387 kts | 315° |
| 2026-05-07 17:40 | 31.35253 | 27.19846 | 36158 ft | 384 kts | 325° |
| 2026-05-07 17:40 | 31.39702 | 27.16381 | 36141 ft | 385 kts | 327° |
| 2026-05-07 17:41 | 31.44238 | 27.13025 | 36158 ft | 386 kts | 327° |
| 2026-05-07 17:41 | 31.48778 | 27.09667 | 36154 ft | 386 kts | 327° |
| 2026-05-07 17:42 | 31.53305 | 27.06288 | 36153 ft | 386 kts | 327° |
| 2026-05-07 17:42 | 31.57828 | 27.02895 | 36155 ft | 386 kts | 327° |
| 2026-05-07 17:43 | 31.62345 | 26.99499 | 36151 ft | 386 kts | 327° |
| 2026-05-07 17:43 | 31.66865 | 26.96097 | 36151 ft | 386 kts | 327° |
| 2026-05-07 17:44 | 31.71385 | 26.92693 | 36152 ft | 386 kts | 327° |
| 2026-05-07 17:44 | 31.75902 | 26.89287 | 36151 ft | 386 kts | 327° |
| 2026-05-07 17:45 | 31.80416 | 26.85880 | 36148 ft | 386 kts | 327° |
| 2026-05-07 17:45 | 31.84911 | 26.82482 | 36151 ft | 387 kts | 327° |
| 2026-05-07 17:46 | 31.89444 | 26.79052 | 36151 ft | 388 kts | 327° |
| 2026-05-07 17:46 | 31.93978 | 26.75618 | 36151 ft | 388 kts | 327° |
| 2026-05-07 17:47 | 31.98510 | 26.72181 | 36154 ft | 388 kts | 327° |
| 2026-05-07 17:47 | 32.03047 | 26.68735 | 36168 ft | 388 kts | 327° |
| 2026-05-07 17:48 | 32.07565 | 26.65300 | 36154 ft | 386 kts | 327° |
| 2026-05-07 17:48 | 32.12075 | 26.61867 | 36154 ft | 386 kts | 327° |
| 2026-05-07 17:49 | 32.16585 | 26.58429 | 36154 ft | 386 kts | 327° |
| 2026-05-07 17:49 | 32.21086 | 26.54995 | 36151 ft | 387 kts | 327° |
| 2026-05-07 17:50 | 32.25622 | 26.51530 | 36154 ft | 388 kts | 327° |
| 2026-05-07 17:50 | 32.30161 | 26.48058 | 36154 ft | 388 kts | 327° |
| 2026-05-07 17:51 | 32.34692 | 26.44589 | 36157 ft | 387 kts | 327° |
| 2026-05-07 17:51 | 32.39200 | 26.41132 | 36157 ft | 386 kts | 327° |
| 2026-05-07 17:52 | 32.43710 | 26.37670 | 36157 ft | 386 kts | 327° |
| 2026-05-07 17:52 | 32.48214 | 26.34209 | 36156 ft | 386 kts | 327° |
| 2026-05-07 17:53 | 32.52715 | 26.30745 | 36156 ft | 386 kts | 327° |
| 2026-05-07 17:53 | 32.57228 | 26.27268 | 36157 ft | 386 kts | 327° |
| 2026-05-07 17:54 | 32.61733 | 26.23793 | 36169 ft | 387 kts | 326° |
| 2026-05-07 17:54 | 32.66222 | 26.20326 | 36154 ft | 387 kts | 326° |
| 2026-05-07 17:55 | 32.70735 | 26.16837 | 36156 ft | 387 kts | 326° |
| 2026-05-07 17:55 | 32.75242 | 26.13347 | 36154 ft | 387 kts | 326° |
| 2026-05-07 17:56 | 32.79752 | 26.09851 | 36156 ft | 387 kts | 326° |
| 2026-05-07 17:56 | 32.84263 | 26.06350 | 36157 ft | 387 kts | 326° |
| 2026-05-07 17:57 | 32.88040 | 26.03415 | 36156 ft | 387 kts | 326° |
| 2026-05-07 17:57 | 32.93273 | 25.99345 | 36157 ft | 386 kts | 326° |
| 2026-05-07 17:58 | 32.97760 | 25.95849 | 36157 ft | 385 kts | 326° |
| 2026-05-07 17:58 | 33.02240 | 25.92355 | 36157 ft | 386 kts | 326° |
| 2026-05-07 17:59 | 33.06747 | 25.88835 | 36156 ft | 387 kts | 326° |
| 2026-05-07 17:59 | 33.11253 | 25.85312 | 36157 ft | 387 kts | 326° |
| 2026-05-07 18:00 | 33.15761 | 25.81785 | 36159 ft | 388 kts | 326° |
| 2026-05-07 18:00 | 33.20262 | 25.78256 | 36159 ft | 387 kts | 326° |
| 2026-05-07 18:01 | 33.24768 | 25.74719 | 36149 ft | 387 kts | 326° |
| 2026-05-07 18:01 | 33.29272 | 25.71179 | 36158 ft | 388 kts | 326° |
| 2026-05-07 18:02 | 33.35997 | 25.65887 | 36156 ft | 388 kts | 326° |
| 2026-05-07 18:03 | 33.40501 | 25.62336 | 36157 ft | 389 kts | 326° |
| 2026-05-07 18:03 | 33.45033 | 25.58759 | 36156 ft | 391 kts | 326° |
| 2026-05-07 18:04 | 33.49569 | 25.55175 | 36160 ft | 391 kts | 326° |
| 2026-05-07 18:04 | 33.54090 | 25.51598 | 36154 ft | 389 kts | 325° |
| 2026-05-07 18:05 | 33.58607 | 25.48019 | 36155 ft | 389 kts | 325° |
| 2026-05-07 18:05 | 33.63118 | 25.44441 | 36154 ft | 389 kts | 325° |
| 2026-05-07 18:06 | 33.67632 | 25.40855 | 36155 ft | 389 kts | 325° |
| 2026-05-07 18:06 | 33.72150 | 25.37262 | 36157 ft | 389 kts | 325° |
| 2026-05-07 18:07 | 33.76667 | 25.33664 | 36154 ft | 389 kts | 325° |
| 2026-05-07 18:07 | 33.81193 | 25.30055 | 36154 ft | 392 kts | 325° |
| 2026-05-07 18:08 | 33.85744 | 25.26421 | 36150 ft | 393 kts | 325° |
| 2026-05-07 18:08 | 33.90300 | 25.22779 | 36151 ft | 393 kts | 325° |
| 2026-05-07 18:09 | 33.94089 | 25.19747 | 36151 ft | 393 kts | 324° |
| 2026-05-07 18:09 | 33.98253 | 25.15512 | 36154 ft | 392 kts | 313° |
| 2026-05-07 18:10 | 34.01351 | 25.10094 | 36151 ft | 396 kts | 299° |
| 2026-05-07 18:10 | 34.03440 | 25.03911 | 36151 ft | 400 kts | 294° |
| 2026-05-07 18:11 | 34.05618 | 24.96542 | 36150 ft | 404 kts | 292° |
| 2026-05-07 18:11 | 34.07189 | 24.91169 | 36142 ft | 406 kts | 293° |
| 2026-05-07 18:12 | 34.09089 | 24.84747 | 36147 ft | 406 kts | 293° |
| 2026-05-07 18:12 | 34.10998 | 24.78337 | 36148 ft | 406 kts | 293° |
| 2026-05-07 18:13 | 34.12910 | 24.71920 | 36148 ft | 406 kts | 293° |
| 2026-05-07 18:13 | 34.14819 | 24.65500 | 36148 ft | 406 kts | 293° |
| 2026-05-07 18:14 | 34.16721 | 24.59082 | 36141 ft | 406 kts | 293° |
| 2026-05-07 18:14 | 34.18613 | 24.52685 | 36145 ft | 407 kts | 293° |
| 2026-05-07 18:15 | 34.20509 | 24.46255 | 36146 ft | 405 kts | 293° |
| 2026-05-07 18:15 | 34.22391 | 24.39861 | 36146 ft | 403 kts | 293° |
| 2026-05-07 18:16 | 34.24275 | 24.33456 | 36141 ft | 406 kts | 292° |
| 2026-05-07 18:16 | 34.26168 | 24.27001 | 36143 ft | 408 kts | 292° |
| 2026-05-07 18:17 | 34.28059 | 24.20535 | 36143 ft | 408 kts | 292° |
| 2026-05-07 18:17 | 34.29949 | 24.14052 | 36146 ft | 408 kts | 292° |
| 2026-05-07 18:18 | 34.31836 | 24.07571 | 36139 ft | 408 kts | 292° |
| 2026-05-07 18:18 | 34.33722 | 24.01082 | 36140 ft | 410 kts | 292° |
| 2026-05-07 18:19 | 34.35611 | 23.94563 | 36137 ft | 411 kts | 292° |
| 2026-05-07 18:19 | 34.37499 | 23.88035 | 36137 ft | 411 kts | 292° |
| 2026-05-07 18:20 | 34.39381 | 23.81510 | 36135 ft | 411 kts | 292° |
| 2026-05-07 18:20 | 34.41249 | 23.75019 | 36136 ft | 411 kts | 292° |
| 2026-05-07 18:21 | 34.43126 | 23.68487 | 36132 ft | 411 kts | 292° |
| 2026-05-07 18:21 | 34.44998 | 23.61952 | 36132 ft | 411 kts | 292° |
| 2026-05-07 18:22 | 34.46870 | 23.55403 | 36133 ft | 411 kts | 292° |
| 2026-05-07 18:22 | 34.48737 | 23.48858 | 36129 ft | 411 kts | 292° |
| 2026-05-07 18:23 | 34.50598 | 23.42317 | 36122 ft | 411 kts | 292° |
| 2026-05-07 18:23 | 34.52457 | 23.35768 | 36127 ft | 410 kts | 292° |
| 2026-05-07 18:24 | 34.54306 | 23.29239 | 36130 ft | 410 kts | 292° |
| 2026-05-07 18:24 | 34.56153 | 23.22702 | 36124 ft | 409 kts | 292° |
| 2026-05-07 18:25 | 34.57995 | 23.16169 | 36126 ft | 409 kts | 292° |
| 2026-05-07 18:25 | 34.59834 | 23.09630 | 36113 ft | 409 kts | 291° |
| 2026-05-07 18:26 | 34.61669 | 23.03090 | 36121 ft | 409 kts | 291° |
| 2026-05-07 18:26 | 34.63139 | 22.96418 | 36116 ft | 411 kts | 286° |
| 2026-05-07 18:27 | 34.64350 | 22.89631 | 36114 ft | 411 kts | 285° |
| 2026-05-07 18:27 | 34.65508 | 22.82831 | 36110 ft | 411 kts | 285° |
| 2026-05-07 18:28 | 34.66663 | 22.76027 | 36106 ft | 411 kts | 285° |
| 2026-05-07 18:28 | 34.67816 | 22.69246 | 36105 ft | 409 kts | 285° |
| 2026-05-07 18:29 | 34.68968 | 22.62472 | 36101 ft | 409 kts | 285° |
| 2026-05-07 18:29 | 34.70116 | 22.55704 | 36094 ft | 409 kts | 285° |
| 2026-05-07 18:30 | 34.71260 | 22.48932 | 36097 ft | 409 kts | 285° |
| 2026-05-07 18:30 | 34.72400 | 22.42164 | 36088 ft | 409 kts | 285° |
| 2026-05-07 18:31 | 34.73526 | 22.35445 | 36088 ft | 408 kts | 285° |
| 2026-05-07 18:31 | 34.74657 | 22.28683 | 36086 ft | 408 kts | 284° |
| 2026-05-07 18:32 | 34.75783 | 22.21919 | 36087 ft | 408 kts | 284° |
| 2026-05-07 18:32 | 34.76907 | 22.15148 | 36080 ft | 408 kts | 284° |
| 2026-05-07 18:33 | 34.78024 | 22.08390 | 36087 ft | 409 kts | 284° |
| 2026-05-07 18:33 | 34.79144 | 22.01593 | 36072 ft | 409 kts | 284° |
| 2026-05-07 18:34 | 34.80260 | 21.94794 | 36068 ft | 410 kts | 284° |
| 2026-05-07 18:34 | 34.81373 | 21.87990 | 36066 ft | 410 kts | 284° |
| 2026-05-07 18:35 | 34.82480 | 21.81195 | 36080 ft | 410 kts | 284° |
| 2026-05-07 18:35 | 34.83585 | 21.74387 | 36061 ft | 410 kts | 284° |
| 2026-05-07 18:36 | 34.84685 | 21.67585 | 36069 ft | 410 kts | 284° |
| 2026-05-07 18:36 | 34.85783 | 21.60771 | 36067 ft | 410 kts | 283° |
| 2026-05-07 18:37 | 34.86875 | 21.53968 | 36066 ft | 410 kts | 283° |
| 2026-05-07 18:37 | 34.87966 | 21.47147 | 36053 ft | 410 kts | 283° |
| 2026-05-07 18:38 | 34.89052 | 21.40329 | 36056 ft | 410 kts | 283° |